createdAt,value
2023-03-02T00:02:01.800Z,57.17
2023-03-02T00:04:55.023Z,45.70
2023-03-02T00:07:30.314Z,52.08
2023-03-02T00:09:57.617Z,53.38
2023-03-02T00:12:27.553Z,50.95
2023-03-02T00:14:55.321Z,53.43
2023-03-02T00:17:27.752Z,50.67
2023-03-02T00:20:06.694Z,53.00
2023-03-02T00:22:33.562Z,52.25
2023-03-02T00:25:00.354Z,48.67
2023-03-02T00:27:29.867Z,45.13
2023-03-02T00:29:59.658Z,54.72
2023-03-02T00:32:26.486Z,53.35
2023-03-02T00:34:53.914Z,51.15
2023-03-02T00:37:20.826Z,52.67
2023-03-02T00:39:47.694Z,60.90
2023-03-02T00:42:14.468Z,57.65
2023-03-02T00:44:41.362Z,62.38
2023-03-02T00:47:08.183Z,52.92
2023-03-02T00:49:36.449Z,56.53
2023-03-02T00:52:06.645Z,58.88
2023-03-02T00:54:33.455Z,56.42
2023-03-02T00:57:00.291Z,59.20
2023-03-02T00:59:27.167Z,58.08
2023-03-02T01:02:18.221Z,58.65
2023-03-02T01:04:46.241Z,57.78
2023-03-02T01:07:18.307Z,54.08
2023-03-02T01:09:45.706Z,61.40
2023-03-02T01:12:12.859Z,56.78
2023-03-02T01:14:44.082Z,57.97
2023-03-02T01:17:12.253Z,59.85
2023-03-02T01:19:40.217Z,58.13
2023-03-02T01:22:08.499Z,59.03
2023-03-02T01:24:35.440Z,61.28
2023-03-02T01:27:02.302Z,60.88
2023-03-02T01:29:29.078Z,52.47
2023-03-02T01:31:56.019Z,55.65
2023-03-02T01:34:22.939Z,57.38
2023-03-02T01:36:49.898Z,56.03
2023-03-02T01:39:16.875Z,57.40
2023-03-02T01:41:45.917Z,59.97
2023-03-02T01:44:40.685Z,57.90
2023-03-02T01:47:26.774Z,57.97
2023-03-02T01:50:26.329Z,52.53
2023-03-02T01:52:57.626Z,53.67
2023-03-02T01:55:31.384Z,51.10
2023-03-02T01:58:01.213Z,53.13
2023-03-02T02:00:35.366Z,56.67
2023-03-02T02:03:12.637Z,53.42
2023-03-02T02:05:46.459Z,51.75
2023-03-02T02:08:14.083Z,48.03
2023-03-02T02:10:41.587Z,48.35
2023-03-02T02:13:11.880Z,50.75
2023-03-02T02:15:40.677Z,54.85
2023-03-02T02:18:07.948Z,48.55
2023-03-02T02:20:44.824Z,47.05
2023-03-02T02:23:53.553Z,50.38
2023-03-02T02:26:39.313Z,49.95
2023-03-02T02:29:37.122Z,50.45
2023-03-02T02:32:17.890Z,46.03
2023-03-02T02:35:02.938Z,47.70
2023-03-02T02:37:44.654Z,49.28
2023-03-02T02:40:20.765Z,49.72
2023-03-02T02:42:51.735Z,52.25
2023-03-02T02:45:25.325Z,49.70
2023-03-02T02:47:55.916Z,50.15
2023-03-02T02:50:35.173Z,53.83
2023-03-02T02:53:27.113Z,50.35
2023-03-02T02:55:57.691Z,50.58
2023-03-02T02:58:45.767Z,53.28
2023-03-02T03:01:16.998Z,53.22
2023-03-02T03:03:58.097Z,48.50
2023-03-02T03:06:38.067Z,55.63
2023-03-02T03:09:08.692Z,48.70
2023-03-02T03:11:50.344Z,54.50
2023-03-02T03:14:24.636Z,50.90
2023-03-02T03:16:53.684Z,52.17
2023-03-02T03:19:26.678Z,52.40
2023-03-02T03:21:58.426Z,48.67
2023-03-02T03:24:29.960Z,50.58
2023-03-02T03:26:58.891Z,51.63
2023-03-02T03:29:29.533Z,53.35
2023-03-02T03:32:01.518Z,47.88
2023-03-02T03:34:30.253Z,48.65
2023-03-02T03:37:03.225Z,52.40
2023-03-02T03:39:34.761Z,48.95
2023-03-02T03:42:02.279Z,49.05
2023-03-02T03:44:29.434Z,47.45
2023-03-02T03:46:56.627Z,46.35
2023-03-02T03:49:24.074Z,47.45
2023-03-02T03:51:50.875Z,59.15
2023-03-02T03:54:18.330Z,45.45
2023-03-02T03:56:48.772Z,45.60
2023-03-02T03:59:21.994Z,44.90
2023-03-02T04:02:00.094Z,44.83
2023-03-02T04:04:34.899Z,47.67
2023-03-02T04:07:15.272Z,43.65
2023-03-02T04:09:43.749Z,40.38
2023-03-02T04:12:13.537Z,42.80
2023-03-02T04:14:45.492Z,39.88
2023-03-02T04:17:12.808Z,40.75
2023-03-02T04:19:42.940Z,43.00
2023-03-02T04:22:10.202Z,45.10
2023-03-02T04:24:37.314Z,44.83
2023-03-02T04:27:05.037Z,47.10
2023-03-02T04:29:33.480Z,41.47
2023-03-02T04:32:02.465Z,42.08
2023-03-02T04:34:30.966Z,41.65
2023-03-02T04:36:58.091Z,45.53
2023-03-02T04:39:25.905Z,44.08
2023-03-02T04:41:54.753Z,45.47
2023-03-02T04:44:21.666Z,46.92
2023-03-02T04:46:50.346Z,41.67
2023-03-02T04:49:19.533Z,43.63
2023-03-02T04:51:49.074Z,44.00
2023-03-02T04:54:26.336Z,42.78
2023-03-02T04:56:54.407Z,41.97
2023-03-02T04:59:27.716Z,44.92
2023-03-02T05:01:59.233Z,43.70
2023-03-02T05:04:27.480Z,43.88
2023-03-02T05:06:54.728Z,43.38
2023-03-02T05:09:27.059Z,42.95
2023-03-02T05:12:00.385Z,42.63
2023-03-02T05:14:28.772Z,37.15
2023-03-02T05:16:55.712Z,46.50
2023-03-02T05:19:22.756Z,43.58
2023-03-02T05:21:49.775Z,44.35
2023-03-02T05:24:16.660Z,42.40
2023-03-02T05:26:43.653Z,46.17
2023-03-02T05:29:10.438Z,41.80
2023-03-02T05:31:41.739Z,43.30
2023-03-02T05:34:11.599Z,44.65
2023-03-02T05:36:38.836Z,46.85
2023-03-02T05:39:07.284Z,49.17
2023-03-02T05:41:35.658Z,47.97
2023-03-02T05:44:02.548Z,44.47
2023-03-02T05:46:29.329Z,43.03
2023-03-02T05:48:56.131Z,45.40
2023-03-02T05:51:22.988Z,44.72
2023-03-02T05:53:49.862Z,42.25
2023-03-02T05:56:16.712Z,47.30
2023-03-02T05:58:43.559Z,43.67
2023-03-02T06:01:15.070Z,46.75
2023-03-02T06:03:43.285Z,45.15
2023-03-02T06:06:13.781Z,51.13
2023-03-02T06:08:41.713Z,50.65
2023-03-02T06:11:09.339Z,46.90
2023-03-02T06:13:37.906Z,49.22
2023-03-02T06:16:05.462Z,49.95
2023-03-02T06:18:32.595Z,47.47
2023-03-02T06:20:59.931Z,47.35
2023-03-02T06:23:26.808Z,51.65
2023-03-02T06:25:53.791Z,45.60
2023-03-02T06:28:21.828Z,47.05
2023-03-02T06:30:49.854Z,50.55
2023-03-02T06:33:18.957Z,49.05
2023-03-02T06:35:46.207Z,47.63
2023-03-02T06:38:13.495Z,48.58
2023-03-02T06:40:40.307Z,46.05
2023-03-02T06:43:07.113Z,52.95
2023-03-02T06:45:34.236Z,54.90
2023-03-02T06:48:02.292Z,52.22
2023-03-02T06:50:29.316Z,46.17
2023-03-02T06:52:56.706Z,49.90
2023-03-02T06:55:23.992Z,48.22
2023-03-02T06:57:51.526Z,50.05
2023-03-02T07:00:25.827Z,51.40
2023-03-02T07:02:53.429Z,52.80
2023-03-02T07:05:20.905Z,53.53
2023-03-02T07:07:47.975Z,50.13
2023-03-02T07:10:15.419Z,49.08
2023-03-02T07:12:42.951Z,49.78
2023-03-02T07:15:12.235Z,49.67
2023-03-02T07:17:40.795Z,48.28
2023-03-02T07:20:09.025Z,48.25
2023-03-02T07:22:36.934Z,50.13
2023-03-02T07:25:04.171Z,52.25
2023-03-02T07:27:31.050Z,48.83
2023-03-02T07:29:57.912Z,47.45
2023-03-02T07:32:24.972Z,51.38
2023-03-02T07:34:51.858Z,50.08
2023-03-02T07:37:18.682Z,48.67
2023-03-02T07:39:47.664Z,55.55
2023-03-02T07:42:15.422Z,50.92
2023-03-02T07:44:45.710Z,47.80
2023-03-02T07:47:12.634Z,44.55
2023-03-02T07:49:39.823Z,51.08
2023-03-02T07:52:06.854Z,53.80
2023-03-02T07:54:33.665Z,46.90
2023-03-02T07:57:00.922Z,46.13
2023-03-02T07:59:28.886Z,48.70
2023-03-02T08:01:58.570Z,48.47
2023-03-02T08:04:26.086Z,42.80
2023-03-02T08:06:52.881Z,42.60
2023-03-02T08:09:19.819Z,44.67
2023-03-02T08:11:47.836Z,45.08
2023-03-02T08:14:14.988Z,43.08
2023-03-02T08:16:42.117Z,41.58
2023-03-02T08:19:09.143Z,50.30
2023-03-02T08:21:36.040Z,45.15
2023-03-02T08:24:03.537Z,46.17
2023-03-02T08:26:31.171Z,41.40
2023-03-02T08:28:59.487Z,41.47
2023-03-02T08:31:26.739Z,42.92
2023-03-02T08:33:54.094Z,37.45
2023-03-02T08:36:21.377Z,36.95
2023-03-02T08:38:49.550Z,38.60
2023-03-02T08:41:20.196Z,36.97
2023-03-02T08:43:47.688Z,35.55
2023-03-02T08:46:18.177Z,36.28
2023-03-02T08:48:46.768Z,37.67
2023-03-02T08:51:18.628Z,35.83
2023-03-02T08:53:50.348Z,35.60
2023-03-02T08:56:21.583Z,38.03
2023-03-02T08:58:50.220Z,34.55
2023-03-02T09:01:21.061Z,35.00
2023-03-02T09:03:48.549Z,33.88
2023-03-02T09:06:16.292Z,34.90
2023-03-02T09:08:44.189Z,33.55
2023-03-02T09:11:11.237Z,39.45
2023-03-02T09:13:38.305Z,37.65
2023-03-02T09:16:06.536Z,32.38
2023-03-02T09:18:34.113Z,36.65
2023-03-02T09:21:01.134Z,34.75
2023-03-02T09:23:29.378Z,39.00
2023-03-02T09:25:56.582Z,31.60
2023-03-02T09:28:23.963Z,33.60
2023-03-02T09:30:58.814Z,35.95
2023-03-02T09:33:26.659Z,37.97
2023-03-02T09:35:53.643Z,36.47
2023-03-02T09:38:21.014Z,33.38
2023-03-02T09:40:53.166Z,37.53
2023-03-02T09:43:52.312Z,33.47
2023-03-02T09:46:49.636Z,35.03
2023-03-02T09:49:47.966Z,33.08
2023-03-02T09:52:40.922Z,30.80
2023-03-02T09:55:22.222Z,32.10
2023-03-02T09:57:50.670Z,32.40
2023-03-02T10:00:31.467Z,34.10
2023-03-02T10:03:27.013Z,34.25
2023-03-02T10:05:55.444Z,31.27
2023-03-02T10:08:29.700Z,34.03
2023-03-02T10:11:05.750Z,31.45
2023-03-02T10:14:08.145Z,31.52
2023-03-02T10:16:53.738Z,33.70
2023-03-02T10:19:34.510Z,28.63
2023-03-02T10:22:18.116Z,30.65
2023-03-02T10:24:58.633Z,30.70
2023-03-02T10:27:39.066Z,31.60
2023-03-02T10:30:31.295Z,32.72
2023-03-02T10:33:20.970Z,30.77
2023-03-02T10:35:53.322Z,30.70
2023-03-02T10:38:25.033Z,30.20
2023-03-02T10:41:02.050Z,28.98
2023-03-02T10:43:39.898Z,30.35
2023-03-02T10:46:10.627Z,27.70
2023-03-02T10:48:56.250Z,27.67
2023-03-02T10:51:32.709Z,31.00
2023-03-02T10:54:10.563Z,28.10
2023-03-02T10:56:41.327Z,29.38
2023-03-02T10:59:46.939Z,32.65
2023-03-02T11:02:25.020Z,28.45
2023-03-02T11:04:59.388Z,28.42
2023-03-02T11:07:29.597Z,28.95
2023-03-02T11:10:19.893Z,30.55
2023-03-02T11:12:49.353Z,30.75
2023-03-02T11:15:40.264Z,30.70
2023-03-02T11:18:07.131Z,30.27
2023-03-02T11:20:43.977Z,32.65
2023-03-02T11:23:25.272Z,29.90
2023-03-02T11:26:05.993Z,31.92
2023-03-02T11:28:58.660Z,27.42
2023-03-02T11:31:52.192Z,32.38
2023-03-02T11:34:48.672Z,30.63
2023-03-02T11:37:26.603Z,30.30
2023-03-02T11:40:26.413Z,26.60
2023-03-02T11:42:57.764Z,28.00
2023-03-02T11:45:29.666Z,32.53
2023-03-02T11:48:24.414Z,29.92
2023-03-02T11:51:06.930Z,29.17
2023-03-02T11:54:02.753Z,28.15
2023-03-02T11:56:34.736Z,27.60
2023-03-02T11:59:15.669Z,26.63
2023-03-02T12:01:49.045Z,26.98
2023-03-02T12:04:37.969Z,27.98
2023-03-02T12:07:25.919Z,27.95
2023-03-02T12:10:32.035Z,26.10
2023-03-02T12:13:26.024Z,25.63
2023-03-02T12:15:56.135Z,23.40
2023-03-02T12:18:22.955Z,25.50
2023-03-02T12:21:03.356Z,26.77
2023-03-02T12:23:32.756Z,22.70
2023-03-02T12:26:19.948Z,25.52
2023-03-02T12:28:59.136Z,23.13
2023-03-02T12:31:26.249Z,26.63
2023-03-02T12:33:53.665Z,26.83
2023-03-02T12:36:32.550Z,25.42
2023-03-02T12:39:27.298Z,24.30
2023-03-02T12:42:28.229Z,26.45
2023-03-02T12:45:25.261Z,25.05
2023-03-02T12:48:03.105Z,25.65
2023-03-02T12:50:37.563Z,26.33
2023-03-02T12:53:15.112Z,24.67
2023-03-02T12:55:41.933Z,30.10
2023-03-02T12:58:28.177Z,24.33
2023-03-02T13:00:59.821Z,22.35
2023-03-02T13:03:29.407Z,24.08
2023-03-02T13:06:10.855Z,20.73
2023-03-02T13:08:37.830Z,20.35
2023-03-02T13:11:05.441Z,21.77
2023-03-02T13:13:45.326Z,24.17
2023-03-02T13:16:32.867Z,21.85
2023-03-02T13:19:05.523Z,22.67
2023-03-02T13:21:37.712Z,20.23
2023-03-02T13:24:27.698Z,18.52
2023-03-02T13:27:08.270Z,20.60
2023-03-02T13:29:35.363Z,19.65
2023-03-02T13:32:22.221Z,20.83
2023-03-02T13:34:59.171Z,19.30
2023-03-02T13:37:40.590Z,22.38
2023-03-02T13:40:27.499Z,23.08
2023-03-02T13:42:55.096Z,23.33
2023-03-02T13:45:29.357Z,24.38
2023-03-02T13:47:59.679Z,26.17
2023-03-02T13:50:32.228Z,23.70
2023-03-02T13:53:05.504Z,22.60
2023-03-02T13:55:34.161Z,24.38
2023-03-02T13:58:01.764Z,24.50
2023-03-02T14:00:35.151Z,23.48
2023-03-02T14:03:02.481Z,24.08
2023-03-02T14:05:35.730Z,22.90
2023-03-02T14:08:02.947Z,22.17
2023-03-02T14:10:30.001Z,21.10
2023-03-02T14:13:09.010Z,19.40
2023-03-02T14:15:46.595Z,21.38
2023-03-02T14:18:31.283Z,20.38
2023-03-02T14:20:58.423Z,18.58
2023-03-02T14:23:26.609Z,21.85
2023-03-02T14:25:56.297Z,18.02
2023-03-02T14:28:37.443Z,20.25
2023-03-02T14:31:04.337Z,19.08
2023-03-02T14:33:31.148Z,20.63
2023-03-02T14:35:58.823Z,18.50
2023-03-02T14:38:27.732Z,20.02
2023-03-02T14:40:54.823Z,17.98
2023-03-02T14:43:23.333Z,18.60
2023-03-02T14:45:50.182Z,21.70
2023-03-02T14:48:17.132Z,17.65
2023-03-02T14:50:49.783Z,17.00
2023-03-02T14:53:29.486Z,15.48
2023-03-02T14:55:56.519Z,19.83
2023-03-02T14:58:32.641Z,15.60
2023-03-02T15:01:00.353Z,16.05
2023-03-02T15:03:27.410Z,16.85
2023-03-02T15:06:01.295Z,16.63
2023-03-02T15:08:29.336Z,18.20
2023-03-02T15:10:56.126Z,18.05
2023-03-02T15:13:22.957Z,19.20
2023-03-02T15:15:50.094Z,17.25
2023-03-02T15:18:19.596Z,20.10
2023-03-02T15:20:46.737Z,19.77
2023-03-02T15:23:13.621Z,20.17
2023-03-02T15:25:40.690Z,22.17
2023-03-02T15:28:07.516Z,22.00
2023-03-02T15:30:34.360Z,19.65
2023-03-02T15:33:01.257Z,20.08
2023-03-02T15:35:29.305Z,18.25
2023-03-02T15:37:58.252Z,20.35
2023-03-02T15:40:25.713Z,20.48
2023-03-02T15:42:53.057Z,18.50
2023-03-02T15:45:20.223Z,20.13
2023-03-02T15:47:47.110Z,19.10
2023-03-02T15:50:13.908Z,19.75
2023-03-02T15:52:41.934Z,19.85
2023-03-02T15:55:09.265Z,21.00
2023-03-02T15:57:39.518Z,20.27
2023-03-02T16:00:08.102Z,21.73
2023-03-02T16:02:35.350Z,22.25
2023-03-02T16:05:02.261Z,23.63
2023-03-02T16:07:30.425Z,22.55
2023-03-02T16:09:57.255Z,19.73
2023-03-02T16:12:26.474Z,20.60
2023-03-02T16:14:53.233Z,21.52
2023-03-02T16:17:20.453Z,21.27
2023-03-02T16:19:47.361Z,18.90
2023-03-02T16:22:14.754Z,19.88
2023-03-02T16:24:41.988Z,20.25
2023-03-02T16:27:08.999Z,18.90
2023-03-02T16:29:35.900Z,16.10
2023-03-02T16:32:03.140Z,17.83
2023-03-02T16:34:30.142Z,19.70
2023-03-02T16:36:57.076Z,17.08
2023-03-02T16:39:24.436Z,18.55
2023-03-02T16:41:51.629Z,17.75
2023-03-02T16:44:19.595Z,17.35
2023-03-02T16:46:46.592Z,20.67
2023-03-02T16:49:14.055Z,21.20
2023-03-02T16:51:42.354Z,21.02
2023-03-02T16:54:10.166Z,18.55
2023-03-02T16:56:37.550Z,19.23
2023-03-02T16:59:04.431Z,19.63
2023-03-02T17:01:31.373Z,18.17
2023-03-02T17:03:58.383Z,22.15
2023-03-02T17:06:25.505Z,19.65
2023-03-02T17:08:52.426Z,20.67
2023-03-02T17:11:20.287Z,19.27
2023-03-02T17:13:47.260Z,17.83
2023-03-02T17:16:16.112Z,18.85
2023-03-02T17:18:46.746Z,18.20
2023-03-02T17:21:16.689Z,17.55
2023-03-02T17:23:44.322Z,16.40
2023-03-02T17:26:11.254Z,18.98
2023-03-02T17:28:39.175Z,15.80
2023-03-02T17:31:06.284Z,20.15
2023-03-02T17:33:33.945Z,16.52
2023-03-02T17:36:11.839Z,16.27
2023-03-02T17:38:40.187Z,20.08
2023-03-02T17:41:10.071Z,16.05
2023-03-02T17:43:41.048Z,16.48
2023-03-02T17:46:22.702Z,19.83
2023-03-02T17:48:54.136Z,16.73
2023-03-02T17:51:22.150Z,18.15
2023-03-02T17:53:51.311Z,20.67
2023-03-02T17:56:22.352Z,20.60
2023-03-02T17:58:58.382Z,18.33
2023-03-02T18:01:26.341Z,19.80
2023-03-02T18:03:53.378Z,18.98
2023-03-02T18:06:20.761Z,17.08
2023-03-02T18:08:50.010Z,19.90
2023-03-02T18:11:20.711Z,19.15
2023-03-02T18:13:48.013Z,19.73
2023-03-02T18:16:14.891Z,18.95
2023-03-02T18:18:41.848Z,19.00
2023-03-02T18:21:08.926Z,19.25
2023-03-02T18:23:35.836Z,19.90
2023-03-02T18:26:02.842Z,20.95
2023-03-02T18:28:30.089Z,20.25
2023-03-02T18:30:57.203Z,23.33
2023-03-02T18:33:23.985Z,23.45
2023-03-02T18:35:50.875Z,20.90
2023-03-02T18:38:18.010Z,22.30
2023-03-02T18:40:44.878Z,21.88
2023-03-02T18:43:11.771Z,20.27
2023-03-02T18:45:38.841Z,22.20
2023-03-02T18:48:06.197Z,23.40
2023-03-02T18:50:33.098Z,21.63
2023-03-02T18:53:00.879Z,22.73
2023-03-02T18:55:27.822Z,20.05
2023-03-02T18:57:54.925Z,23.67
2023-03-02T19:00:27.948Z,24.40
2023-03-02T19:02:56.831Z,21.70
2023-03-02T19:05:26.820Z,21.50
2023-03-02T19:07:54.738Z,23.27
2023-03-02T19:10:21.679Z,24.17
2023-03-02T19:12:48.573Z,24.23
2023-03-02T19:15:15.941Z,21.35
2023-03-02T19:17:43.538Z,20.73
2023-03-02T19:20:16.300Z,21.38
2023-03-02T19:22:43.079Z,21.23
2023-03-02T19:25:11.553Z,20.42
2023-03-02T19:27:39.744Z,22.40
2023-03-02T19:30:11.390Z,21.23
2023-03-02T19:32:38.346Z,22.67
2023-03-02T19:35:06.066Z,20.92
2023-03-02T19:37:33.315Z,21.60
2023-03-02T19:40:00.315Z,21.92
2023-03-02T19:42:27.186Z,21.30
2023-03-02T19:44:53.950Z,21.27
2023-03-02T19:47:20.741Z,24.30
2023-03-02T19:49:47.523Z,20.15
2023-03-02T19:52:14.288Z,21.48
2023-03-02T19:54:43.509Z,22.20
2023-03-02T19:57:10.313Z,19.83
2023-03-02T19:59:39.685Z,21.48
2023-03-02T20:02:06.648Z,22.77
2023-03-02T20:04:33.802Z,16.83
2023-03-02T20:07:01.277Z,19.27
2023-03-02T20:09:28.101Z,21.75
2023-03-02T20:11:54.931Z,20.17
2023-03-02T20:14:33.421Z,19.13
2023-03-02T20:17:02.257Z,21.25
2023-03-02T20:19:29.226Z,20.25
2023-03-02T20:21:56.281Z,20.63
2023-03-02T20:24:23.154Z,21.60
2023-03-02T20:26:50.269Z,19.00
2023-03-02T20:29:18.886Z,21.90
2023-03-02T20:31:45.952Z,23.80
2023-03-02T20:34:16.479Z,24.25
2023-03-02T20:36:44.306Z,23.75
2023-03-02T20:39:23.759Z,26.00
2023-03-02T20:41:51.979Z,27.08
2023-03-02T20:44:19.293Z,29.02
2023-03-02T20:46:53.914Z,25.45
2023-03-02T20:49:24.450Z,31.55
2023-03-02T20:51:56.674Z,27.88
2023-03-02T20:54:32.497Z,28.17
2023-03-02T20:56:59.625Z,27.15
2023-03-02T20:59:27.903Z,26.67
2023-03-02T21:01:54.804Z,26.23
2023-03-02T21:04:21.786Z,26.38
2023-03-02T21:06:48.854Z,26.63
2023-03-02T21:09:17.929Z,24.35
2023-03-02T21:11:46.196Z,29.35
2023-03-02T21:14:16.184Z,28.65
2023-03-02T21:16:44.416Z,29.48
2023-03-02T21:19:17.231Z,31.20
2023-03-02T21:21:45.161Z,27.02
2023-03-02T21:24:18.047Z,27.23
2023-03-02T21:26:47.411Z,31.90
2023-03-02T21:29:15.547Z,32.45
2023-03-02T21:31:43.826Z,29.13
2023-03-02T21:34:13.208Z,28.77
2023-03-02T21:36:41.251Z,30.13
2023-03-02T21:39:09.923Z,30.75
2023-03-02T21:41:36.802Z,28.75
2023-03-02T21:44:05.628Z,28.95
2023-03-02T21:46:35.675Z,26.25
2023-03-02T21:49:03.305Z,29.83
2023-03-02T21:51:30.287Z,28.92
2023-03-02T21:53:57.108Z,28.48
2023-03-02T21:56:26.489Z,28.83
2023-03-02T21:58:57.006Z,28.10
2023-03-02T22:01:26.107Z,29.98
2023-03-02T22:03:53.653Z,27.08
2023-03-02T22:06:25.484Z,28.02
2023-03-02T22:08:53.713Z,26.95
2023-03-02T22:11:28.665Z,26.77
2023-03-02T22:13:58.736Z,25.83
2023-03-02T22:16:32.889Z,27.33
2023-03-02T22:19:00.817Z,26.17
2023-03-02T22:21:35.641Z,25.67
2023-03-02T22:24:20.271Z,24.17
2023-03-02T22:27:01.912Z,23.48
2023-03-02T22:29:45.059Z,25.20
2023-03-02T22:32:19.551Z,23.48
2023-03-02T22:34:53.250Z,23.75
2023-03-02T22:37:32.774Z,24.30
2023-03-02T22:40:26.263Z,21.17
2023-03-02T22:43:21.169Z,20.20
2023-03-02T22:45:48.083Z,18.25
2023-03-02T22:48:22.054Z,19.58
2023-03-02T22:50:50.227Z,19.23
2023-03-02T22:53:58.279Z,18.83
2023-03-02T22:56:43.411Z,17.73
2023-03-02T22:59:25.328Z,15.93
2023-03-02T23:02:12.928Z,16.83
2023-03-02T23:04:40.469Z,16.42
2023-03-02T23:07:22.212Z,16.30
2023-03-02T23:09:49.204Z,15.27
2023-03-02T23:12:28.441Z,13.73
2023-03-02T23:14:58.437Z,15.50
2023-03-02T23:17:39.671Z,13.38
2023-03-02T23:20:11.125Z,14.20
2023-03-02T23:22:39.097Z,13.68
2023-03-02T23:25:08.712Z,14.27
2023-03-02T23:27:35.665Z,14.25
2023-03-02T23:30:03.499Z,14.57
2023-03-02T23:32:30.447Z,14.38
2023-03-02T23:34:57.244Z,13.55
2023-03-02T23:37:24.026Z,12.82
2023-03-02T23:39:50.781Z,13.57
2023-03-02T23:42:17.554Z,16.17
2023-03-02T23:44:45.210Z,12.82
2023-03-02T23:47:12.096Z,12.65
2023-03-02T23:49:39.013Z,13.13
2023-03-02T23:52:05.952Z,12.52
2023-03-02T23:54:33.045Z,12.05
2023-03-02T23:56:59.858Z,12.82
2023-03-02T23:59:26.666Z,13.82
